Upperco, Maryland
Current Conditions -  °F | °C
As of 6:40 PM on Saturday 25 Oct 2014 (Local Time) from KDMW Reporting Station
Scattered Clouds Scattered Clouds  
Wind Chill: 64°   Ceiling: Unl
Heat Index: 64°   Visibility: 10mi
Dew Point: 43°   Wind: 6mph
Humidity: 45%   Direction: 230°SW
Pressure: 29.72"   Gusts: NA
Location:  39.56°N, 76.84°W
Report Text: KDMW 252240Z AUTO 23005KT 10SM SCT090 18/06 A2972 RMK AO2
Loading
Personal Weather Stations






























Interactive Weather Map
Tropical Storm Tracking
New forecast layout! Learn more

10-Day Weather Forecast

Advertisements
Track Severe Weather on mobile